Time;durP1;ratioP1;P1;durP2;ratioP2;P2;SDS_P1;SDS_P2;PMS_P1;PMS_P2;Temp;Humidity;BMP_temperature;BMP_pressure;BME280_temperature;BME280_humidity;BME280_pressure;Samples;Min_cycle;Max_cycle;Signal;HPM_P1;HPM_P2
2023/03/16 00:01:34;;;;;;;;;;;;;;;;;;5093265;28;1277;-68
2023/03/16 00:04:00;;;;;;;;;;;;;;;;;;5092356;28;1257;-69
2023/03/16 00:06:25;;;;;;;;;;;;;;;;;;5093085;28;868;-69
2023/03/16 00:08:50;;;;;;;;;;;;;;;;;;5093303;28;1142;-69
2023/03/16 00:11:16;;;;;;;;;;;;;;;;;;5092947;28;1898;-69
2023/03/16 00:13:41;;;;;;;;;;;;;;;;;;5094755;28;1198;-68
2023/03/16 00:16:07;;;;;;;;;;;;;;;;;;5076124;28;1281;-68
2023/03/16 00:18:37;;;;;;;;;;;;;;;;;;5076095;28;1290;-68
2023/03/16 00:21:04;;;;;;;;;;;;;;;;;;5092896;28;1379;-68
2023/03/16 00:23:34;;;;;;;;;;;;;;;;;;5093410;28;1201;-68
2023/03/16 00:26:01;;;;;;;;;;;;;;;;;;5093212;28;1403;-69
2023/03/16 00:28:27;;;;;;;;;;;;;;;;;;5093364;28;1206;-68
2023/03/16 00:30:57;;;;;;;;;;;;;;;;;;5092649;28;1914;-68
2023/03/16 00:33:23;;;;;;;;;;;;;;;;;;5094555;28;880;-69
2023/03/16 00:35:48;;;;;;;;;;;;;;;;;;5094505;28;935;-69
2023/03/16 00:38:14;;;;;;;;;;;;;;;;;;5092631;28;1202;-68
2023/03/16 00:40:39;;;;;;;;;;;;;;;;;;5092809;28;912;-68
2023/03/16 00:43:04;;;;;;;;;;;;;;;;;;5092576;28;876;-69
2023/03/16 00:45:31;;;;;;;;;;;;;;;;;;5094027;28;931;-68
2023/03/16 00:47:56;;;;;;;;;;;;;;;;;;5093539;28;903;-69
2023/03/16 00:50:21;;;;;;;;;;;;;;;;;;5092079;28;1959;-69
2023/03/16 00:52:47;;;;;;;;;;;;;;;;;;5092042;28;1380;-69
2023/03/16 00:55:12;;;;;;;;;;;;;;;;;;5091346;28;1150;-68
2023/03/16 00:57:38;;;;;;;;;;;;;;;;;;5074881;28;1170;-68
2023/03/16 01:00:11;;;;;;;;;;;;;;;;;;5074734;28;1209;-68
2023/03/16 01:02:37;;;;;;;;;;;;;;;;;;5093127;28;879;-69
2023/03/16 01:05:04;;;;;;;;;;;;;;;;;;5092601;28;832;-69
2023/03/16 01:07:30;;;;;;;;;;;;;;;;;;5092636;28;758;-68
2023/03/16 01:09:55;;;;;;;;;;;;;;;;;;5091354;28;1905;-69
2023/03/16 01:12:20;;;;;;;;;;;;;;;;;;5091808;28;1371;-68
2023/03/16 01:14:46;;;;;;;;;;;;;;;;;;5091687;28;1214;-70
2023/03/16 01:17:12;;;;;;;;;;;;;;;;;;5091766;28;1325;-69
2023/03/16 01:19:38;;;;;;;;;;;;;;;;;;5093242;28;859;-69
2023/03/16 01:22:06;;;;;;;;;;;;;;;;;;5092117;28;1182;-69
2023/03/16 01:24:33;;;;;;;;;;;;;;;;;;5075125;28;1317;-69
2023/03/16 01:26:59;;;;;;;;;;;;;;;;;;5093190;28;765;-69
2023/03/16 01:29:24;;;;;;;;;;;;;;;;;;5091955;28;1913;-69
2023/03/16 01:31:49;;;;;;;;;;;;;;;;;;5091992;28;1127;-69
2023/03/16 01:34:15;;;;;;;;;;;;;;;;;;5092313;28;1002;-69
2023/03/16 01:36:41;;;;;;;;;;;;;;;;;;5093522;28;853;-69
2023/03/16 01:39:06;;;;;;;;;;;;;;;;;;5093260;28;836;-69
2023/03/16 01:41:32;;;;;;;;;;;;;;;;;;5091718;28;1182;-69
2023/03/16 01:43:57;;;;;;;;;;;;;;;;;;5092606;28;1058;-69
2023/03/16 01:46:24;;;;;;;;;;;;;;;;;;5093048;28;770;-69
2023/03/16 01:48:52;;;;;;;;;;;;;;;;;;5091703;28;1174;-69
2023/03/16 01:51:28;;;;;;;;;;;;;;;;;;5090958;28;1887;-69
2023/03/16 01:53:57;;;;;;;;;;;;;;;;;;5092929;28;856;-69
2023/03/16 01:56:28;;;;;;;;;;;;;;;;;;5101915;28;1265;-69
2023/03/16 01:58:57;;;;;;;;;;;;;;;;;;5111551;28;1256;-69
2023/03/16 02:01:23;;;;;;;;;;;;;;;;;;5111371;28;1132;-69
2023/03/16 02:03:48;;;;;;;;;;;;;;;;;;5095194;28;1130;-69
2023/03/16 02:06:16;;;;;;;;;;;;;;;;;;5111793;28;835;-69
2023/03/16 02:08:44;;;;;;;;;;;;;;;;;;5112019;28;1296;-69
2023/03/16 02:11:10;;;;;;;;;;;;;;;;;;5111430;28;1968;-69
2023/03/16 02:13:37;;;;;;;;;;;;;;;;;;5111416;28;1258;-69
2023/03/16 02:16:04;;;;;;;;;;;;;;;;;;5093602;28;1372;-69
2023/03/16 02:18:30;;;;;;;;;;;;;;;;;;5111337;28;1204;-69
2023/03/16 02:20:59;;;;;;;;;;;;;;;;;;5109679;28;1264;-70
2023/03/16 02:23:24;;;;;;;;;;;;;;;;;;5110519;28;1213;-69
2023/03/16 02:26:10;;;;;;;;;;;;;;;;;;5112007;28;1002;-69
2023/03/16 02:28:35;;;;;;;;;;;;;;;;;;5104201;28;1084;-69
2023/03/16 02:31:01;;;;;;;;;;;;;;;;;;5111855;28;2334;-69
2023/03/16 02:33:27;;;;;;;;;;;;;;;;;;5111141;28;1273;-69
2023/03/16 02:35:53;;;;;;;;;;;;;;;;;;5111883;28;820;-70
2023/03/16 02:38:18;;;;;;;;;;;;;;;;;;5110194;28;1063;-70
2023/03/16 02:40:44;;;;;;;;;;;;;;;;;;5111541;28;868;-70
2023/03/16 02:43:12;;;;;;;;;;;;;;;;;;5111378;28;916;-70
2023/03/16 02:45:45;;;;;;;;;;;;;;;;;;5110318;28;1267;-70
2023/03/16 02:48:17;;;;;;;;;;;;;;;;;;5111807;28;800;-70
2023/03/16 02:50:47;;;;;;;;;;;;;;;;;;5109759;28;1961;-70
2023/03/16 02:53:13;;;;;;;;;;;;;;;;;;5111765;28;1037;-70
2023/03/16 02:55:38;;;;;;;;;;;;;;;;;;5111792;28;828;-70
2023/03/16 02:58:04;;;;;;;;;;;;;;;;;;5093157;28;1201;-70
2023/03/16 03:00:29;;;;;;;;;;;;;;;;;;5110023;28;974;-70
2023/03/16 03:02:54;;;;;;;;;;;;;;;;;;5110525;28;858;-70
2023/03/16 03:05:20;;;;;;;;;;;;;;;;;;5093269;28;1309;-70
2023/03/16 03:07:45;;;;;;;;;;;;;;;;;;5110414;28;1328;-70
2023/03/16 03:10:10;;;;;;;;;;;;;;;;;;5109632;28;2380;-70
2023/03/16 03:12:36;;;;;;;;;;;;;;;;;;5067499;28;1261862;-70
2023/03/16 03:15:02;;;;;;;;;;;;;;;;;;5110527;28;1152;-70
2023/03/16 03:17:31;;;;;;;;;;;;;;;;;;5110884;28;1189;-70
2023/03/16 03:19:56;;;;;;;;;;;;;;;;;;5111996;28;1061;-70
2023/03/16 03:22:22;;;;;;;;;;;;;;;;;;5111959;28;915;-70
2023/03/16 03:24:47;;;;;;;;;;;;;;;;;;5109969;28;893;-70
2023/03/16 03:27:12;;;;;;;;;;;;;;;;;;5110793;28;947;-70
2023/03/16 03:29:37;;;;;;;;;;;;;;;;;;5093390;28;1974;-70
2023/03/16 03:32:03;;;;;;;;;;;;;;;;;;5113631;28;1176;-70
2023/03/16 03:34:29;;;;;;;;;;;;;;;;;;5115691;28;887;-70
2023/03/16 03:36:54;;;;;;;;;;;;;;;;;;5114412;28;1166;-70
2023/03/16 03:39:19;;;;;;;;;;;;;;;;;;5116334;28;884;-70
2023/03/16 03:41:45;;;;;;;;;;;;;;;;;;5114882;28;1138;-70
2023/03/16 03:44:10;;;;;;;;;;;;;;;;;;5114232;28;1193;-70
2023/03/16 03:46:35;;;;;;;;;;;;;;;;;;5116272;28;824;-70
2023/03/16 03:49:04;;;;;;;;;;;;;;;;;;5113671;28;1193;-70
2023/03/16 03:51:30;;;;;;;;;;;;;;;;;;5114228;28;1934;-70
2023/03/16 03:53:55;;;;;;;;;;;;;;;;;;5115594;28;848;-70
2023/03/16 03:56:20;;;;;;;;;;;;;;;;;;5113609;28;1253;-70
2023/03/16 03:58:45;;;;;;;;;;;;;;;;;;5096436;28;1202;-70
2023/03/16 04:01:11;;;;;;;;;;;;;;;;;;5114659;28;891;-70
2023/03/16 04:03:36;;;;;;;;;;;;;;;;;;5115017;28;895;-70
2023/03/16 04:06:02;;;;;;;;;;;;;;;;;;5096705;28;1181;-70
2023/03/16 04:08:27;;;;;;;;;;;;;;;;;;5113891;28;776;-70
2023/03/16 04:10:53;;;;;;;;;;;;;;;;;;5114039;28;1913;-70
2023/03/16 04:13:18;;;;;;;;;;;;;;;;;;5113237;28;1091;-70
2023/03/16 04:15:45;;;;;;;;;;;;;;;;;;5113841;28;1113;-70
2023/03/16 04:18:11;;;;;;;;;;;;;;;;;;5113462;28;888;-70
2023/03/16 04:20:37;;;;;;;;;;;;;;;;;;5115796;28;789;-70
2023/03/16 04:23:03;;;;;;;;;;;;;;;;;;5097265;28;1166;-70
2023/03/16 04:25:29;;;;;;;;;;;;;;;;;;5113751;28;1185;-70
2023/03/16 04:27:55;;;;;;;;;;;;;;;;;;5096990;28;1198;-70
2023/03/16 04:30:22;;;;;;;;;;;;;;;;;;5114343;28;1977;-70
2023/03/16 04:32:47;;;;;;;;;;;;;;;;;;5115499;28;879;-70
2023/03/16 04:35:14;;;;;;;;;;;;;;;;;;5113667;28;1193;-70
2023/03/16 04:37:40;;;;;;;;;;;;;;;;;;5097053;28;1177;-70
2023/03/16 04:40:10;;;;;;;;;;;;;;;;;;5113736;28;904;-70
2023/03/16 04:42:36;;;;;;;;;;;;;;;;;;5113288;28;864;-70
2023/03/16 04:45:02;;;;;;;;;;;;;;;;;;5113760;28;986;-70
2023/03/16 04:47:29;;;;;;;;;;;;;;;;;;5096299;28;1160;-70
2023/03/16 04:49:54;;;;;;;;;;;;;;;;;;5113205;28;1918;-70
2023/03/16 04:52:19;;;;;;;;;;;;;;;;;;5115253;28;935;-70
2023/03/16 04:54:45;;;;;;;;;;;;;;;;;;5115267;28;658;-70
2023/03/16 04:57:10;;;;;;;;;;;;;;;;;;5113594;28;936;-70
2023/03/16 04:59:35;;;;;;;;;;;;;;;;;;5097067;28;1197;-70
2023/03/16 05:02:01;;;;;;;;;;;;;;;;;;5109617;28;1285;-70
2023/03/16 05:04:26;;;;;;;;;;;;;;;;;;5102941;28;1151;-70
2023/03/16 05:06:53;;;;;;;;;;;;;;;;;;5086744;28;1219;-70
2023/03/16 05:09:19;;;;;;;;;;;;;;;;;;5099885;28;1914;-70
2023/03/16 05:11:44;;;;;;;;;;;;;;;;;;5079008;28;1332;-70
2023/03/16 05:14:10;;;;;;;;;;;;;;;;;;5101036;28;1230;-70
2023/03/16 05:16:35;;;;;;;;;;;;;;;;;;5092833;28;1154;-70
2023/03/16 05:19:00;;;;;;;;;;;;;;;;;;5092971;28;1189;-69
2023/03/16 05:21:26;;;;;;;;;;;;;;;;;;5075919;28;1301;-69
2023/03/16 05:23:51;;;;;;;;;;;;;;;;;;5092402;28;1146;-70
2023/03/16 05:26:17;;;;;;;;;;;;;;;;;;5075097;28;1340;-69
2023/03/16 05:28:42;;;;;;;;;;;;;;;;;;5092059;28;1296;-69
2023/03/16 05:31:08;;;;;;;;;;;;;;;;;;5091670;28;1903;-70
2023/03/16 05:33:34;;;;;;;;;;;;;;;;;;5091628;28;1222;-69
2023/03/16 05:36:01;;;;;;;;;;;;;;;;;;5091894;28;1328;-69
2023/03/16 05:38:26;;;;;;;;;;;;;;;;;;5092468;28;832;-69
2023/03/16 05:40:51;;;;;;;;;;;;;;;;;;5091402;28;1381;-68
2023/03/16 05:43:18;;;;;;;;;;;;;;;;;;5091468;28;852;-69
2023/03/16 05:45:43;;;;;;;;;;;;;;;;;;5098103;28;1292;-68
2023/03/16 05:48:09;;;;;;;;;;;;;;;;;;5101434;28;1230;-68
2023/03/16 05:50:34;;;;;;;;;;;;;;;;;;5113663;28;1959;-68
2023/03/16 05:52:59;;;;;;;;;;;;;;;;;;5114448;28;884;-68
2023/03/16 05:55:24;;;;;;;;;;;;;;;;;;5113011;28;805;-68
2023/03/16 05:57:50;;;;;;;;;;;;;;;;;;5113063;28;895;-68
2023/03/16 06:00:18;;;;;;;;;;;;;;;;;;5112554;28;1174;-68
2023/03/16 06:02:46;;;;;;;;;;;;;;;;;;5112723;28;823;-68
2023/03/16 06:05:11;;;;;;;;;;;;;;;;;;5114049;28;865;-68
2023/03/16 06:07:37;;;;;;;;;;;;;;;;;;5112674;28;1276;-68
2023/03/16 06:10:03;;;;;;;;;;;;;;;;;;5112237;28;1964;-68
2023/03/16 06:12:29;;;;;;;;;;;;;;;;;;5113582;28;1091;-68
2023/03/16 06:14:54;;;;;;;;;;;;;;;;;;5112811;28;1261;-69
2023/03/16 06:17:20;;;;;;;;;;;;;;;;;;5113939;28;888;-69
2023/03/16 06:19:45;;;;;;;;;;;;;;;;;;5114055;28;876;-69
2023/03/16 06:22:10;;;;;;;;;;;;;;;;;;5112943;28;856;-68
2023/03/16 06:24:36;;;;;;;;;;;;;;;;;;5112615;28;1177;-69
2023/03/16 06:27:02;;;;;;;;;;;;;;;;;;5112312;28;1189;-68
2023/03/16 06:29:28;;;;;;;;;;;;;;;;;;5114453;28;1886;-69
2023/03/16 06:31:53;;;;;;;;;;;;;;;;;;5112164;28;1273;-69
2023/03/16 06:34:19;;;;;;;;;;;;;;;;;;5094993;28;1260;-68
2023/03/16 06:36:44;;;;;;;;;;;;;;;;;;5112731;28;939;-68
2023/03/16 06:39:09;;;;;;;;;;;;;;;;;;5095283;28;1106;-68
2023/03/16 06:41:34;;;;;;;;;;;;;;;;;;5112108;28;1261;-69
2023/03/16 06:44:00;;;;;;;;;;;;;;;;;;5111535;28;1303;-69
2023/03/16 06:46:25;;;;;;;;;;;;;;;;;;5111714;28;1169;-75
2023/03/16 06:48:50;;;;;;;;;;;;;;;;;;5113109;28;998;-69
2023/03/16 06:51:16;;;;;;;;;;;;;;;;;;5112117;28;1974;-69
2023/03/16 06:53:41;;;;;;;;;;;;;;;;;;5113084;28;1014;-69
2023/03/16 06:56:06;;;;;;;;;;;;;;;;;;5112813;28;895;-69
2023/03/16 06:58:32;;;;;;;;;;;;;;;;;;5113266;28;1285;-69
2023/03/16 07:01:00;;;;;;;;;;;;;;;;;;5111582;28;1227;-69
2023/03/16 07:03:25;;;;;;;;;;;;;;;;;;5113257;28;1248;-69
2023/03/16 07:06:09;;;;;;;;;;;;;;;;;;5114097;28;1174;-69
2023/03/16 07:08:35;;;;;;;;;;;;;;;;;;5117550;28;868;-69
2023/03/16 07:11:00;;;;;;;;;;;;;;;;;;5117754;28;1949;-69
2023/03/16 07:13:25;;;;;;;;;;;;;;;;;;5117573;28;1057;-69
2023/03/16 07:15:51;;;;;;;;;;;;;;;;;;5116563;28;836;-69
2023/03/16 07:18:16;;;;;;;;;;;;;;;;;;5117886;28;899;-69
2023/03/16 07:20:42;;;;;;;;;;;;;;;;;;5117040;28;824;-69
2023/03/16 07:23:07;;;;;;;;;;;;;;;;;;5117202;28;829;-70
2023/03/16 07:25:32;;;;;;;;;;;;;;;;;;5117379;28;937;-69
2023/03/16 07:27:57;;;;;;;;;;;;;;;;;;5114622;28;1254;-69
2023/03/16 07:30:24;;;;;;;;;;;;;;;;;;5115301;28;1914;-70
2023/03/16 07:32:49;;;;;;;;;;;;;;;;;;5117651;28;899;-69
2023/03/16 07:35:15;;;;;;;;;;;;;;;;;;5115099;28;1158;-69
2023/03/16 07:37:41;;;;;;;;;;;;;;;;;;5115391;28;829;-69
2023/03/16 07:40:08;;;;;;;;;;;;;;;;;;5115375;28;895;-69
2023/03/16 07:42:34;;;;;;;;;;;;;;;;;;5115030;28;881;-69
2023/03/16 07:45:00;;;;;;;;;;;;;;;;;;5116156;28;832;-69
2023/03/16 07:47:25;;;;;;;;;;;;;;;;;;5115471;28;770;-69
2023/03/16 07:49:51;;;;;;;;;;;;;;;;;;5115901;28;1917;-69
2023/03/16 07:52:16;;;;;;;;;;;;;;;;;;5116401;28;899;-68
2023/03/16 07:54:42;;;;;;;;;;;;;;;;;;5114756;28;1219;-69
2023/03/16 07:57:07;;;;;;;;;;;;;;;;;;5116840;28;855;-69
2023/03/16 07:59:32;;;;;;;;;;;;;;;;;;5115745;28;1134;-69
2023/03/16 08:01:58;;;;;;;;;;;;;;;;;;5115903;28;892;-69
2023/03/16 08:04:23;;;;;;;;;;;;;;;;;;5116702;27;848;-70
2023/03/16 08:06:52;;;;;;;;;;;;;;;;;;5117577;28;828;-70
2023/03/16 08:09:17;;;;;;;;;;;;;;;;;;5116024;28;898;-70
2023/03/16 08:11:42;;;;;;;;;;;;;;;;;;5114052;28;1947;-70
2023/03/16 08:14:08;;;;;;;;;;;;;;;;;;5114868;28;1267;-70
2023/03/16 08:16:33;;;;;;;;;;;;;;;;;;5116963;28;911;-70
2023/03/16 08:19:00;;;;;;;;;;;;;;;;;;5115065;28;824;-70
2023/03/16 08:21:25;;;;;;;;;;;;;;;;;;5116748;28;1268;-70
2023/03/16 08:23:51;;;;;;;;;;;;;;;;;;5117529;28;828;-68
2023/03/16 08:26:18;;;;;;;;;;;;;;;;;;5116316;28;1213;-68
2023/03/16 08:28:46;;;;;;;;;;;;;;;;;;5114493;28;1317;-68
2023/03/16 08:31:15;;;;;;;;;;;;;;;;;;5115437;28;1975;-68
2023/03/16 08:33:41;;;;;;;;;;;;;;;;;;5115232;28;1060;-69
2023/03/16 08:36:07;;;;;;;;;;;;;;;;;;5116031;28;797;-69
2023/03/16 08:38:33;;;;;;;;;;;;;;;;;;5117386;27;1051;-69
2023/03/16 08:40:59;;;;;;;;;;;;;;;;;;5115364;28;1209;-68
2023/03/16 08:43:25;;;;;;;;;;;;;;;;;;5115696;28;852;-68
2023/03/16 08:45:51;;;;;;;;;;;;;;;;;;5115383;28;1268;-68
2023/03/16 08:48:17;;;;;;;;;;;;;;;;;;5114708;28;883;-68
2023/03/16 08:50:43;;;;;;;;;;;;;;;;;;5115610;28;1901;-68
2023/03/16 08:53:09;;;;;;;;;;;;;;;;;;5098985;28;1277;-69
2023/03/16 08:55:35;;;;;;;;;;;;;;;;;;5116708;28;904;-69
2023/03/16 08:58:00;;;;;;;;;;;;;;;;;;5116528;28;781;-68
2023/03/16 09:00:27;;;;;;;;;;;;;;;;;;5098824;28;1170;-69
2023/03/16 09:02:54;;;;;;;;;;;;;;;;;;5115322;28;852;-68
2023/03/16 09:05:19;;;;;;;;;;;;;;;;;;5116445;28;1260;-69
2023/03/16 09:07:45;;;;;;;;;;;;;;;;;;5116584;28;1193;-68
2023/03/16 09:10:14;;;;;;;;;;;;;;;;;;5116461;28;1906;-69
2023/03/16 09:12:41;;;;;;;;;;;;;;;;;;5117740;28;1191;-68
2023/03/16 09:15:08;;;;;;;;;;;;;;;;;;5115569;28;1182;-70
2023/03/16 09:17:35;;;;;;;;;;;;;;;;;;5098177;28;1154;-69
2023/03/16 09:20:01;;;;;;;;;;;;;;;;;;5115961;28;786;-69
2023/03/16 09:22:27;;;;;;;;;;;;;;;;;;5119033;28;836;-68
2023/03/16 09:24:52;;;;;;;;;;;;;;;;;;5118215;28;1179;-69
2023/03/16 09:27:19;;;;;;;;;;;;;;;;;;5119519;28;1034;-69
2023/03/16 09:29:44;;;;;;;;;;;;;;;;;;5118623;28;1898;-68
2023/03/16 09:32:09;;;;;;;;;;;;;;;;;;5117025;28;1257;-69
2023/03/16 09:34:35;;;;;;;;;;;;;;;;;;5121587;28;789;-69
2023/03/16 09:37:01;;;;;;;;;;;;;;;;;;5103523;28;1169;-68
2023/03/16 09:39:26;;;;;;;;;;;;;;;;;;5120167;28;1181;-67
2023/03/16 09:41:52;;;;;;;;;;;;;;;;;;5119296;28;1061;-68
2023/03/16 09:44:25;;;;;;;;;;;;;;;;;;5118348;28;827;-69
2023/03/16 09:46:51;;;;;;;;;;;;;;;;;;5112639;28;1281;-69
2023/03/16 09:49:19;;;;;;;;;;;;;;;;;;5113789;28;883;-68
2023/03/16 09:52:04;;;;;;;;;;;;;;;;;;5113788;28;1981;-69
2023/03/16 09:54:48;;;;;;;;;;;;;;;;;;5113921;28;915;-68
2023/03/16 09:57:31;;;;;;;;;;;;;;;;;;5112237;28;1252;-68
2023/03/16 09:59:59;;;;;;;;;;;;;;;;;;5112435;28;1265;-68
2023/03/16 10:02:37;;;;;;;;;;;;;;;;;;5113563;28;899;-69
2023/03/16 10:05:10;;;;;;;;;;;;;;;;;;5113134;28;840;-68
2023/03/16 10:08:02;;;;;;;;;;;;;;;;;;5113986;28;887;-68
2023/03/16 10:10:46;;;;;;;;;;;;;;;;;;5095958;28;1955;-68
2023/03/16 10:13:20;;;;;;;;;;;;;;;;;;5111492;28;1368;-69
2023/03/16 10:15:47;;;;;;;;;;;;;;;;;;5112836;28;831;-68
2023/03/16 10:18:17;;;;;;;;;;;;;;;;;;5112581;28;808;-69
2023/03/16 10:20:44;;;;;;;;;;;;;;;;;;5111414;28;1177;-69
2023/03/16 10:23:19;;;;;;;;;;;;;;;;;;5112989;28;832;-69
2023/03/16 10:25:49;;;;;;;;;;;;;;;;;;5112530;28;880;-69
2023/03/16 10:28:16;;;;;;;;;;;;;;;;;;5111068;28;1221;-69
2023/03/16 10:30:42;;;;;;;;;;;;;;;;;;5112891;28;1898;-69
2023/03/16 10:33:19;;;;;;;;;;;;;;;;;;5094299;28;1438;-69
2023/03/16 10:35:47;;;;;;;;;;;;;;;;;;5113227;28;812;-69
2023/03/16 10:38:48;;;;;;;;;;;;;;;;;;5113701;28;843;-68
2023/03/16 10:41:16;;;;;;;;;;;;;;;;;;5080666;28;1271;-69
2023/03/16 10:43:42;;;;;;;;;;;;;;;;;;5116060;28;1300;-68
2023/03/16 10:46:08;;;;;;;;;;;;;;;;;;5114009;28;1254;-68
2023/03/16 10:48:34;;;;;;;;;;;;;;;;;;5092355;28;1168;-67
2023/03/16 10:51:02;;;;;;;;;;;;;;;;;;5095122;28;1902;-68
2023/03/16 10:53:33;;;;;;;;;;;;;;;;;;5095614;28;1350;-68
2023/03/16 10:56:04;;;;;;;;;;;;;;;;;;5095955;28;1152;-68
2023/03/16 10:58:31;;;;;;;;;;;;;;;;;;5094858;28;1190;-68
2023/03/16 11:00:56;;;;;;;;;;;;;;;;;;5095770;28;860;-69
2023/03/16 11:03:26;;;;;;;;;;;;;;;;;;5095525;28;991;-68
2023/03/16 11:05:57;;;;;;;;;;;;;;;;;;5096218;28;892;-68
2023/03/16 11:08:26;;;;;;;;;;;;;;;;;;5095313;28;825;-69
2023/03/16 11:10:58;;;;;;;;;;;;;;;;;;5094730;28;1902;-69
2023/03/16 11:13:25;;;;;;;;;;;;;;;;;;5093215;28;1254;-69
2023/03/16 11:16:00;;;;;;;;;;;;;;;;;;5095222;28;1328;-70
2023/03/16 11:18:28;;;;;;;;;;;;;;;;;;5096009;28;812;-69
2023/03/16 11:20:54;;;;;;;;;;;;;;;;;;5094430;28;1133;-69
2023/03/16 11:23:24;;;;;;;;;;;;;;;;;;5093201;28;1496;-69
2023/03/16 11:25:52;;;;;;;;;;;;;;;;;;5093539;28;1233;-70
2023/03/16 11:28:37;;;;;;;;;;;;;;;;;;5095802;28;884;-70
2023/03/16 11:31:07;;;;;;;;;;;;;;;;;;5095576;28;1906;-69
2023/03/16 11:33:33;;;;;;;;;;;;;;;;;;5095882;28;908;-69
2023/03/16 11:36:18;;;;;;;;;;;;;;;;;;5094774;28;865;-69
2023/03/16 11:38:52;;;;;;;;;;;;;;;;;;5094291;28;1258;-69
2023/03/16 11:41:22;;;;;;;;;;;;;;;;;;5094879;28;1080;-69
2023/03/16 11:43:51;;;;;;;;;;;;;;;;;;5095415;28;906;-69
2023/03/16 11:46:32;;;;;;;;;;;;;;;;;;5095393;28;828;-70
2023/03/16 11:49:00;;;;;;;;;;;;;;;;;;5095314;28;1042;-70
2023/03/16 11:51:34;;;;;;;;;;;;;;;;;;5094829;28;1965;-70
2023/03/16 11:54:06;;;;;;;;;;;;;;;;;;5093197;28;1174;-70
2023/03/16 11:56:37;;;;;;;;;;;;;;;;;;5093825;28;1221;-69
2023/03/16 11:59:06;;;;;;;;;;;;;;;;;;5095188;28;947;-69
2023/03/16 12:01:51;;;;;;;;;;;;;;;;;;5093927;28;1343;-69
2023/03/16 12:04:28;;;;;;;;;;;;;;;;;;5094660;28;1050;-69
2023/03/16 12:07:12;;;;;;;;;;;;;;;;;;5093649;28;1293;-70
2023/03/16 12:09:53;;;;;;;;;;;;;;;;;;5094633;28;1959;-70
2023/03/16 12:12:18;;;;;;;;;;;;;;;;;;5094927;28;891;-69
2023/03/16 12:14:46;;;;;;;;;;;;;;;;;;5092832;28;1392;-69
2023/03/16 12:17:15;;;;;;;;;;;;;;;;;;5093315;28;1276;-69
2023/03/16 12:19:48;;;;;;;;;;;;;;;;;;5093933;28;745;-69
2023/03/16 12:22:22;;;;;;;;;;;;;;;;;;5094032;28;995;-69
2023/03/16 12:24:48;;;;;;;;;;;;;;;;;;5093403;28;1182;-70
2023/03/16 12:27:15;;;;;;;;;;;;;;;;;;5092948;28;1170;-70
2023/03/16 12:29:59;;;;;;;;;;;;;;;;;;5094377;28;1909;-71
2023/03/16 12:32:24;;;;;;;;;;;;;;;;;;5093450;28;1305;-70
2023/03/16 12:34:53;;;;;;;;;;;;;;;;;;5093022;28;1182;-71
2023/03/16 12:37:42;;;;;;;;;;;;;;;;;;5094916;28;836;-70
2023/03/16 12:40:27;;;;;;;;;;;;;;;;;;5094292;28;872;-71
2023/03/16 12:42:52;;;;;;;;;;;;;;;;;;5093499;28;1166;-70
2023/03/16 12:45:26;;;;;;;;;;;;;;;;;;5092664;28;1285;-70
2023/03/16 12:48:03;;;;;;;;;;;;;;;;;;5093038;28;1202;-70
2023/03/16 12:50:28;;;;;;;;;;;;;;;;;;5094379;28;1961;-70
2023/03/16 12:52:53;;;;;;;;;;;;;;;;;;5093903;28;892;-70
2023/03/16 12:55:26;;;;;;;;;;;;;;;;;;5094087;28;895;-70
2023/03/16 12:58:05;;;;;;;;;;;;;;;;;;5093531;28;1202;-70
2023/03/16 13:00:37;;;;;;;;;;;;;;;;;;5092764;28;1186;-70
2023/03/16 13:03:04;;;;;;;;;;;;;;;;;;5092156;28;1162;-69
2023/03/16 13:05:34;;;;;;;;;;;;;;;;;;5092165;28;1151;-70
2023/03/16 13:08:05;;;;;;;;;;;;;;;;;;5092947;28;1226;-71
2023/03/16 13:10:32;;;;;;;;;;;;;;;;;;5093587;28;1902;-70
2023/03/16 13:13:06;;;;;;;;;;;;;;;;;;5092134;28;1301;-70
2023/03/16 13:15:32;;;;;;;;;;;;;;;;;;5093673;28;860;-70
2023/03/16 13:18:15;;;;;;;;;;;;;;;;;;5075761;28;1166;-70
2023/03/16 13:20:47;;;;;;;;;;;;;;;;;;5092286;28;1253;-70
2023/03/16 13:23:21;;;;;;;;;;;;;;;;;;5093622;28;895;-70
2023/03/16 13:26:04;;;;;;;;;;;;;;;;;;5093818;28;1043;-71
2023/03/16 13:28:31;;;;;;;;;;;;;;;;;;5093995;28;914;-71
2023/03/16 13:30:59;;;;;;;;;;;;;;;;;;5093332;28;1967;-70
2023/03/16 13:33:26;;;;;;;;;;;;;;;;;;5091476;28;1166;-70
2023/03/16 13:35:53;;;;;;;;;;;;;;;;;;5094425;28;824;-70
2023/03/16 13:38:26;;;;;;;;;;;;;;;;;;5093451;28;1170;-70
2023/03/16 13:40:54;;;;;;;;;;;;;;;;;;5094055;28;887;-70
2023/03/16 13:43:22;;;;;;;;;;;;;;;;;;5092184;28;1336;-70
2023/03/16 13:45:47;;;;;;;;;;;;;;;;;;5093087;28;1293;-70
2023/03/16 13:48:13;;;;;;;;;;;;;;;;;;5093524;28;946;-70
2023/03/16 13:50:40;;;;;;;;;;;;;;;;;;5074797;28;1905;-71
2023/03/16 13:53:27;;;;;;;;;;;;;;;;;;5092958;28;844;-70
2023/03/16 13:55:53;;;;;;;;;;;;;;;;;;5092990;28;1209;-70
2023/03/16 13:58:28;;;;;;;;;;;;;;;;;;5091861;28;1332;-70
2023/03/16 14:00:54;;;;;;;;;;;;;;;;;;5091643;28;1342;-71
2023/03/16 14:03:21;;;;;;;;;;;;;;;;;;5092897;28;1398;-71
2023/03/16 14:05:47;;;;;;;;;;;;;;;;;;5091247;28;1325;-71
2023/03/16 14:08:20;;;;;;;;;;;;;;;;;;5094011;28;820;-71
2023/03/16 14:10:46;;;;;;;;;;;;;;;;;;5093534;28;1901;-71
2023/03/16 14:13:22;;;;;;;;;;;;;;;;;;5093574;28;1080;-71
2023/03/16 14:15:48;;;;;;;;;;;;;;;;;;5092238;28;1482;-71
2023/03/16 14:18:20;;;;;;;;;;;;;;;;;;5075435;28;1332;-71
2023/03/16 14:20:45;;;;;;;;;;;;;;;;;;5094661;28;1198;-71
2023/03/16 14:23:19;;;;;;;;;;;;;;;;;;5094884;28;962;-71
2023/03/16 14:25:46;;;;;;;;;;;;;;;;;;5093668;28;1190;-70
2023/03/16 14:28:13;;;;;;;;;;;;;;;;;;5094914;28;848;-70
2023/03/16 14:30:48;;;;;;;;;;;;;;;;;;5093689;28;1910;-70
2023/03/16 14:33:28;;;;;;;;;;;;;;;;;;5093353;28;900;-70
2023/03/16 14:35:55;;;;;;;;;;;;;;;;;;5091308;28;1383;-70
2023/03/16 14:38:21;;;;;;;;;;;;;;;;;;5091889;28;1499;-70
2023/03/16 14:40:56;;;;;;;;;;;;;;;;;;5091822;28;1329;-70
2023/03/16 14:43:35;;;;;;;;;;;;;;;;;;5094613;28;887;-69
2023/03/16 14:46:03;;;;;;;;;;;;;;;;;;5095000;28;1194;-70
2023/03/16 14:48:29;;;;;;;;;;;;;;;;;;5096237;28;868;-69
2023/03/16 14:50:56;;;;;;;;;;;;;;;;;;5096766;28;1964;-70
2023/03/16 14:53:23;;;;;;;;;;;;;;;;;;5094615;28;912;-70
2023/03/16 14:55:48;;;;;;;;;;;;;;;;;;5091273;28;1190;-70
2023/03/16 14:58:14;;;;;;;;;;;;;;;;;;5091537;28;1177;-70
2023/03/16 15:00:40;;;;;;;;;;;;;;;;;;5092751;28;895;-70
2023/03/16 15:03:09;;;;;;;;;;;;;;;;;;5075290;28;1340;-70
2023/03/16 15:05:36;;;;;;;;;;;;;;;;;;5092451;28;1205;-70
2023/03/16 15:08:04;;;;;;;;;;;;;;;;;;5093111;28;1312;-70
2023/03/16 15:10:32;;;;;;;;;;;;;;;;;;5095471;28;1894;-70
2023/03/16 15:13:11;;;;;;;;;;;;;;;;;;5103502;28;1253;-70
2023/03/16 15:15:37;;;;;;;;;;;;;;;;;;5100882;28;1336;-70
2023/03/16 15:18:02;;;;;;;;;;;;;;;;;;5107533;28;1234;-70
2023/03/16 15:20:31;;;;;;;;;;;;;;;;;;5098248;28;1167;-70
2023/03/16 15:22:57;;;;;;;;;;;;;;;;;;5108129;28;1368;-71
2023/03/16 15:25:22;;;;;;;;;;;;;;;;;;5097626;28;1171;-70
2023/03/16 15:27:48;;;;;;;;;;;;;;;;;;5103789;28;1159;-70
2023/03/16 15:30:24;;;;;;;;;;;;;;;;;;5105774;28;1913;-70
2023/03/16 15:32:50;;;;;;;;;;;;;;;;;;5106624;28;1183;-70
2023/03/16 15:35:15;;;;;;;;;;;;;;;;;;5111230;28;1168;-70
2023/03/16 15:37:41;;;;;;;;;;;;;;;;;;5097841;28;1160;-70
2023/03/16 15:40:26;;;;;;;;;;;;;;;;;;5104401;28;1160;-70
2023/03/16 15:42:52;;;;;;;;;;;;;;;;;;5105187;28;1298;-71
2023/03/16 15:45:19;;;;;;;;;;;;;;;;;;5086087;28;1222;-70
2023/03/16 15:47:45;;;;;;;;;;;;;;;;;;5115071;28;1270;-70
2023/03/16 15:50:12;;;;;;;;;;;;;;;;;;5124540;28;1965;-71
2023/03/16 15:52:38;;;;;;;;;;;;;;;;;;5109323;28;1079;-70
2023/03/16 15:55:07;;;;;;;;;;;;;;;;;;5107554;28;1171;-71
2023/03/16 15:57:33;;;;;;;;;;;;;;;;;;5109436;28;1199;-70
2023/03/16 16:00:00;;;;;;;;;;;;;;;;;;5107653;28;1170;-70
2023/03/16 16:02:30;;;;;;;;;;;;;;;;;;5101867;28;1164;-70
2023/03/16 16:04:56;;;;;;;;;;;;;;;;;;5110476;28;1219;-70
2023/03/16 16:07:21;;;;;;;;;;;;;;;;;;5106581;28;1299;-70
2023/03/16 16:09:47;;;;;;;;;;;;;;;;;;5104504;28;1975;-70
2023/03/16 16:12:13;;;;;;;;;;;;;;;;;;5109266;28;1277;-70
2023/03/16 16:14:40;;;;;;;;;;;;;;;;;;5105433;28;1215;-70
2023/03/16 16:17:14;;;;;;;;;;;;;;;;;;5107072;28;1211;-71
2023/03/16 16:19:39;;;;;;;;;;;;;;;;;;5101298;28;1367;-71
2023/03/16 16:22:08;;;;;;;;;;;;;;;;;;5104605;28;1219;-70
2023/03/16 16:24:34;;;;;;;;;;;;;;;;;;5105593;28;1175;-70
2023/03/16 16:26:59;;;;;;;;;;;;;;;;;;5107143;28;1151;-70
2023/03/16 16:29:29;;;;;;;;;;;;;;;;;;5104969;28;1328;-70
2023/03/16 16:31:54;;;;;;;;;;;;;;;;;;5107921;28;1973;-70
2023/03/16 16:34:23;;;;;;;;;;;;;;;;;;5114092;28;1341;-70
2023/03/16 16:36:48;;;;;;;;;;;;;;;;;;5107059;28;1226;-70
2023/03/16 16:39:13;;;;;;;;;;;;;;;;;;5094637;28;1161;-70
2023/03/16 16:41:41;;;;;;;;;;;;;;;;;;5101905;28;1137;-70
2023/03/16 16:44:14;;;;;;;;;;;;;;;;;;5104998;28;1171;-70
2023/03/16 16:46:40;;;;;;;;;;;;;;;;;;5104257;28;1037;-70
2023/03/16 16:49:11;;;;;;;;;;;;;;;;;;5095811;28;805;-70
2023/03/16 16:51:37;;;;;;;;;;;;;;;;;;5097039;28;1906;-70
2023/03/16 16:54:11;;;;;;;;;;;;;;;;;;5095798;28;857;-70
2023/03/16 16:56:37;;;;;;;;;;;;;;;;;;5107172;28;1142;-70
2023/03/16 16:59:12;;;;;;;;;;;;;;;;;;5104664;28;988;-70
2023/03/16 17:01:38;;;;;;;;;;;;;;;;;;5096392;28;824;-70
2023/03/16 17:04:10;;;;;;;;;;;;;;;;;;5097390;28;946;-70
2023/03/16 17:06:35;;;;;;;;;;;;;;;;;;5109052;28;1176;-71
2023/03/16 17:09:00;;;;;;;;;;;;;;;;;;5100640;28;1189;-70
2023/03/16 17:11:28;;;;;;;;;;;;;;;;;;5120107;28;1898;-71
2023/03/16 17:13:56;;;;;;;;;;;;;;;;;;5119355;28;1304;-71